Buck Creek, Indiana
Current Conditions -  °F | °C
As of 2:54 PM on Wednesday 26 Nov 2014 (Local Time) from KLAF Reporting Station
Broken Clouds Broken Clouds  
Wind Chill: 25°   Ceiling: 2200
Heat Index: 31°   Visibility: 10mi
Dew Point: 22°   Wind: 6mph
Humidity: 69%   Direction: NA
Pressure: 30.08"   Gusts: NA
Location:  40.49°N, 86.76°W
Report Text: KLAF 261954Z VRB05KT 10SM BKN022 M01/M06 A3008 RMK AO2 SLP191 T10061056
Loading
Personal Weather Stations






























Interactive Weather Map New forecast layout! Learn more

10-Day Weather Forecast

Advertisements
Track Severe Weather on mobile